createdAt,value
2022-08-18T00:01:41.780Z,27.78
2022-08-18T00:04:34.885Z,27.70
2022-08-18T00:07:01.218Z,28.02
2022-08-18T00:09:32.443Z,27.89
2022-08-18T00:12:04.171Z,27.96
2022-08-18T00:14:33.694Z,27.92
2022-08-18T00:17:02.294Z,28.09
2022-08-18T00:19:45.438Z,27.95
2022-08-18T00:22:21.326Z,27.97
2022-08-18T00:24:52.391Z,28.12
2022-08-18T00:27:28.240Z,28.25
2022-08-18T00:30:01.210Z,27.84
2022-08-18T00:32:33.778Z,28.33
2022-08-18T00:35:13.790Z,28.06
2022-08-18T00:37:43.294Z,28.04
2022-08-18T00:40:18.122Z,28.38
2022-08-18T00:42:49.897Z,28.20
2022-08-18T00:45:23.466Z,28.31
2022-08-18T00:47:52.211Z,28.08
2022-08-18T00:50:29.344Z,28.31
2022-08-18T00:53:01.802Z,28.41
2022-08-18T00:55:31.765Z,28.42
2022-08-18T00:58:07.644Z,28.65
2022-08-18T01:00:37.659Z,28.62
2022-08-18T01:03:14.969Z,28.74
2022-08-18T01:05:57.405Z,28.47
2022-08-18T01:08:29.240Z,28.83
2022-08-18T01:11:02.243Z,29.00
2022-08-18T01:13:33.767Z,28.87
2022-08-18T01:16:24.051Z,28.63
2022-08-18T01:19:10.108Z,28.60
2022-08-18T01:21:52.130Z,28.68
2022-08-18T01:24:47.698Z,28.78
2022-08-18T01:27:18.691Z,29.10
2022-08-18T01:29:49.511Z,29.00
2022-08-18T01:32:20.667Z,29.28
2022-08-18T01:34:50.118Z,29.22
2022-08-18T01:37:21.766Z,29.07
2022-08-18T01:41:21.122Z,29.01
2022-08-18T01:42:43.435Z,29.32
2022-08-18T01:45:13.930Z,29.33
2022-08-18T01:47:47.942Z,29.18
2022-08-18T01:50:18.279Z,29.48
2022-08-18T01:52:47.422Z,29.24
2022-08-18T01:55:18.231Z,29.41
2022-08-18T01:57:47.829Z,29.41
2022-08-18T02:00:19.125Z,29.36
2022-08-18T02:02:57.945Z,29.74
2022-08-18T02:05:35.599Z,29.39
2022-08-18T02:08:04.976Z,29.77
2022-08-18T02:10:34.896Z,30.03
2022-08-18T02:13:04.004Z,29.99
2022-08-18T02:15:33.097Z,30.09
2022-08-18T02:18:01.601Z,30.09
2022-08-18T02:20:30.031Z,30.10
2022-08-18T02:22:59.375Z,29.70
2022-08-18T02:25:27.794Z,29.71
2022-08-18T02:27:58.329Z,30.23
2022-08-18T02:30:26.801Z,30.18
2022-08-18T02:32:56.754Z,30.12
2022-08-18T02:35:25.127Z,30.34
2022-08-18T02:37:54.598Z,30.53
2022-08-18T02:40:23.354Z,30.40
2022-08-18T02:42:52.851Z,30.50
2022-08-18T02:45:24.244Z,30.52
2022-08-18T02:47:54.858Z,30.79
2022-08-18T02:50:25.010Z,30.39
2022-08-18T02:52:54.334Z,31.01
2022-08-18T02:55:23.597Z,30.67
2022-08-18T02:57:52.033Z,30.91
2022-08-18T03:00:22.403Z,30.62
2022-08-18T03:02:53.521Z,31.20
2022-08-18T03:05:22.264Z,31.15
2022-08-18T03:07:51.242Z,30.93
2022-08-18T03:10:31.805Z,30.60
2022-08-18T03:13:03.105Z,30.73
2022-08-18T03:15:33.374Z,31.06
2022-08-18T03:18:02.532Z,31.11
2022-08-18T03:20:31.656Z,30.99
2022-08-18T03:23:05.800Z,31.11
2022-08-18T03:25:44.156Z,31.11
2022-08-18T03:28:12.713Z,30.95
2022-08-18T03:30:43.447Z,31.37
2022-08-18T03:33:12.030Z,31.44
2022-08-18T03:35:41.643Z,30.94
2022-08-18T03:38:10.536Z,31.21
2022-08-18T03:40:39.280Z,31.41
2022-08-18T03:43:23.652Z,31.46
2022-08-18T03:46:01.489Z,31.14
2022-08-18T03:48:29.982Z,31.28
2022-08-18T03:51:06.825Z,31.66
2022-08-18T03:53:35.828Z,31.32
2022-08-18T03:56:09.558Z,31.60
2022-08-18T03:58:38.379Z,31.46
2022-08-18T04:01:08.201Z,31.03
2022-08-18T04:03:37.039Z,31.49
2022-08-18T04:06:08.659Z,31.21
2022-08-18T04:08:40.547Z,31.43
2022-08-18T04:11:08.962Z,31.14
2022-08-18T04:13:37.786Z,31.19
2022-08-18T04:16:08.469Z,31.20
2022-08-18T04:18:37.338Z,31.62
2022-08-18T04:21:09.607Z,31.12
2022-08-18T04:23:43.764Z,31.21
2022-08-18T04:26:19.101Z,31.62
2022-08-18T04:28:47.994Z,31.25
2022-08-18T04:31:19.488Z,31.50
2022-08-18T04:33:47.908Z,31.49
2022-08-18T04:36:20.634Z,31.22
2022-08-18T04:38:49.619Z,31.62
2022-08-18T04:41:19.078Z,31.54
2022-08-18T04:43:48.122Z,31.41
2022-08-18T04:46:18.013Z,31.61
2022-08-18T04:48:53.161Z,31.49
2022-08-18T04:52:36.935Z,31.66
2022-08-18T04:54:11.187Z,31.55
2022-08-18T04:56:41.025Z,31.47
2022-08-18T04:59:13.919Z,31.62
2022-08-18T05:01:47.681Z,31.55
2022-08-18T05:04:18.689Z,31.57
2022-08-18T05:06:47.516Z,31.37
2022-08-18T05:09:22.791Z,31.66
2022-08-18T05:11:52.006Z,31.74
2022-08-18T05:14:21.460Z,31.54
2022-08-18T05:16:52.308Z,31.53
2022-08-18T05:19:26.127Z,31.47
2022-08-18T05:22:00.035Z,31.80
2022-08-18T05:24:37.199Z,31.65
2022-08-18T05:27:07.702Z,31.42
2022-08-18T05:29:37.945Z,31.60
2022-08-18T05:32:38.238Z,31.36
2022-08-18T05:35:08.460Z,31.36
2022-08-18T05:37:47.974Z,31.28
2022-08-18T05:40:17.246Z,31.44
2022-08-18T05:42:48.807Z,31.29
2022-08-18T05:45:20.101Z,31.16
2022-08-18T05:47:50.117Z,30.97
2022-08-18T05:50:22.229Z,31.03
2022-08-18T05:52:56.875Z,30.98
2022-08-18T05:55:48.945Z,30.83
2022-08-18T05:58:23.773Z,30.88
2022-08-18T06:01:08.760Z,30.80
2022-08-18T06:03:46.689Z,30.84
2022-08-18T06:06:20.943Z,30.70
2022-08-18T06:09:04.309Z,30.67
2022-08-18T06:11:32.791Z,30.45
2022-08-18T06:14:01.507Z,30.58
2022-08-18T06:16:49.610Z,30.50
2022-08-18T06:19:44.344Z,30.40
2022-08-18T06:22:24.237Z,30.08
2022-08-18T06:25:04.574Z,29.89
2022-08-18T06:27:46.397Z,29.79
2022-08-18T06:30:23.622Z,30.00
2022-08-18T06:33:07.872Z,29.88
2022-08-18T06:35:43.349Z,29.42
2022-08-18T06:38:45.799Z,29.62
2022-08-18T06:41:41.560Z,29.40
2022-08-18T06:44:11.433Z,29.24
2022-08-18T06:46:46.934Z,28.69
2022-08-18T06:49:25.854Z,28.66
2022-08-18T06:51:55.660Z,28.54
2022-08-18T06:54:30.736Z,28.50
2022-08-18T06:57:00.381Z,28.42
2022-08-18T06:59:32.948Z,28.61
2022-08-18T07:02:14.120Z,28.42
2022-08-18T07:04:59.857Z,27.76
2022-08-18T07:07:39.331Z,28.21
2022-08-18T07:10:32.249Z,28.36
2022-08-18T07:13:23.249Z,28.28
2022-08-18T07:15:51.943Z,28.00
2022-08-18T07:18:27.814Z,27.49
2022-08-18T07:20:59.880Z,27.67
2022-08-18T07:23:38.393Z,27.82
2022-08-18T07:26:15.520Z,27.19
2022-08-18T07:28:47.713Z,27.36
2022-08-18T07:31:35.145Z,27.39
2022-08-18T07:34:12.727Z,26.85
2022-08-18T07:36:48.059Z,26.56
2022-08-18T07:39:27.382Z,26.85
2022-08-18T07:42:04.911Z,26.89
2022-08-18T07:44:47.263Z,26.81
2022-08-18T07:47:23.406Z,26.65
2022-08-18T07:50:16.894Z,26.34
2022-08-18T07:52:52.582Z,25.93
2022-08-18T07:55:32.115Z,25.90
2022-08-18T07:58:14.151Z,26.04
2022-08-18T08:01:00.182Z,26.20
2022-08-18T08:03:50.549Z,25.91
2022-08-18T08:06:25.469Z,26.30
2022-08-18T08:09:06.736Z,26.08
2022-08-18T08:11:53.163Z,25.70
2022-08-18T08:14:40.625Z,25.38
2022-08-18T08:17:24.005Z,25.34
2022-08-18T08:20:20.871Z,25.11
2022-08-18T08:23:12.140Z,24.61
2022-08-18T08:25:55.630Z,24.42
2022-08-18T08:28:41.708Z,24.43
2022-08-18T08:31:36.698Z,24.63
2022-08-18T08:34:13.656Z,24.88
2022-08-18T08:36:46.427Z,24.61
2022-08-18T08:39:23.972Z,24.38
2022-08-18T08:42:28.944Z,24.35
2022-08-18T08:45:00.123Z,24.42
2022-08-18T08:47:35.934Z,23.72
2022-08-18T08:50:10.255Z,23.87
2022-08-18T08:52:47.079Z,23.76
2022-08-18T08:55:21.506Z,23.60
2022-08-18T08:57:57.017Z,23.85
2022-08-18T09:00:28.463Z,23.78
2022-08-18T09:03:30.701Z,23.87
2022-08-18T09:06:12.805Z,23.89
2022-08-18T09:09:04.036Z,23.73
2022-08-18T09:12:12.062Z,23.57
2022-08-18T09:15:18.951Z,23.91
2022-08-18T09:18:36.487Z,23.81
2022-08-18T09:21:30.133Z,23.55
2022-08-18T09:24:13.810Z,23.69
2022-08-18T09:26:48.967Z,23.22
2022-08-18T09:29:26.071Z,23.18
2022-08-18T09:32:36.382Z,23.11
2022-08-18T09:35:33.128Z,23.07
2022-08-18T09:38:29.047Z,22.97
2022-08-18T09:41:24.584Z,22.90
2022-08-18T09:44:12.044Z,22.74
2022-08-18T09:47:02.752Z,22.74
2022-08-18T09:49:53.687Z,22.54
2022-08-18T09:53:02.440Z,22.20
2022-08-18T09:56:05.114Z,22.52
2022-08-18T09:59:02.881Z,22.56
2022-08-18T10:01:42.696Z,22.10
2022-08-18T10:04:33.129Z,22.18
2022-08-18T10:07:23.183Z,22.43
2022-08-18T10:11:00.464Z,21.87
2022-08-18T10:13:25.110Z,21.98
2022-08-18T10:16:16.719Z,21.78
2022-08-18T10:19:02.188Z,21.94
2022-08-18T10:22:03.164Z,21.54
2022-08-18T10:24:37.988Z,21.94
2022-08-18T10:27:15.331Z,21.59
2022-08-18T10:34:00.815Z,21.75
2022-08-18T10:36:54.305Z,21.47
2022-08-18T10:39:50.390Z,21.53
2022-08-18T10:42:31.036Z,21.95
2022-08-18T10:45:10.961Z,21.61
2022-08-18T10:47:39.741Z,21.47
2022-08-18T10:50:22.052Z,21.06
2022-08-18T10:53:40.667Z,21.76
2022-08-18T10:56:04.141Z,21.15
2022-08-18T10:59:18.199Z,21.08
2022-08-18T11:02:18.494Z,20.90
2022-08-18T11:07:44.777Z,19.85
2022-08-18T11:10:30.100Z,19.42
2022-08-18T11:13:10.369Z,19.17
2022-08-18T11:15:54.774Z,18.89
2022-08-18T11:18:42.585Z,18.77
2022-08-18T11:21:32.626Z,18.29
2022-08-18T11:24:09.974Z,17.79
2022-08-18T11:26:41.690Z,17.92
2022-08-18T11:29:32.161Z,17.34
2022-08-18T11:32:09.317Z,16.79
2022-08-18T11:34:45.841Z,16.32
2022-08-18T11:37:28.224Z,16.13
2022-08-18T11:43:41.647Z,15.11
2022-08-18T11:46:28.075Z,14.73
2022-08-18T11:49:04.405Z,14.32
2022-08-18T11:51:35.475Z,13.84
2022-08-18T11:57:51.991Z,14.00
2022-08-18T12:01:01.395Z,13.88
2022-08-18T12:03:41.714Z,13.14
2022-08-18T12:06:27.058Z,12.76
2022-08-18T12:09:02.069Z,12.29
2022-08-18T12:11:34.958Z,12.23
2022-08-18T12:16:59.748Z,12.09
2022-08-18T12:19:34.614Z,11.50
2022-08-18T12:22:13.818Z,11.27
2022-08-18T12:24:42.473Z,11.09
2022-08-18T12:27:20.797Z,10.76
2022-08-18T12:29:52.980Z,10.72
2022-08-18T12:32:41.445Z,10.44
2022-08-18T12:35:13.236Z,9.84
2022-08-18T12:38:11.457Z,9.56
2022-08-18T12:40:34.465Z,9.41
2022-08-18T12:43:02.892Z,9.26
2022-08-18T12:45:32.735Z,9.20
2022-08-18T12:48:04.054Z,8.99
2022-08-18T12:50:39.169Z,9.18
2022-08-18T12:53:18.910Z,8.81
2022-08-18T12:55:59.399Z,8.79
2022-08-18T12:58:29.528Z,8.55
2022-08-18T13:00:59.542Z,8.28
2022-08-18T13:03:28.033Z,8.83
2022-08-18T13:05:57.937Z,8.71
2022-08-18T13:08:33.718Z,8.63
2022-08-18T13:11:15.257Z,8.51
2022-08-18T13:13:56.057Z,8.55
2022-08-18T13:16:30.652Z,8.92
2022-08-18T13:19:10.727Z,8.34
2022-08-18T13:21:41.385Z,8.32
2022-08-18T13:24:12.655Z,8.02
2022-08-18T13:26:45.656Z,8.09
2022-08-18T13:29:17.429Z,8.22
2022-08-18T13:31:50.426Z,8.34
2022-08-18T13:34:30.011Z,8.00
2022-08-18T13:36:58.967Z,7.82
2022-08-18T13:39:33.916Z,7.50
2022-08-18T13:42:26.619Z,7.88
2022-08-18T13:44:55.112Z,7.70
2022-08-18T13:47:31.286Z,7.85
2022-08-18T13:50:10.059Z,7.85
2022-08-18T13:52:44.636Z,7.16
2022-08-18T13:55:17.504Z,7.59
2022-08-18T13:57:48.288Z,7.59
2022-08-18T14:00:29.826Z,6.89
2022-08-18T14:03:02.165Z,6.87
2022-08-18T14:05:36.894Z,7.19
2022-08-18T14:08:20.072Z,7.08
2022-08-18T14:10:54.246Z,7.67
2022-08-18T14:13:24.825Z,7.42
2022-08-18T14:15:56.479Z,7.59
2022-08-18T14:18:30.779Z,7.74
2022-08-18T14:21:23.094Z,7.70
2022-08-18T14:24:10.657Z,8.02
2022-08-18T14:26:50.286Z,8.29
2022-08-18T14:29:45.776Z,8.13
2022-08-18T14:32:17.787Z,9.03
2022-08-18T14:34:50.600Z,9.28
2022-08-18T14:37:19.888Z,9.53
2022-08-18T14:39:50.363Z,9.45
2022-08-18T14:42:32.668Z,9.65
2022-08-18T14:45:03.794Z,10.32
2022-08-18T14:47:46.267Z,10.68
2022-08-18T14:50:20.439Z,11.18
2022-08-18T14:52:54.355Z,11.03
2022-08-18T14:55:24.545Z,11.68
2022-08-18T14:57:55.313Z,12.01
2022-08-18T15:00:30.265Z,12.08
2022-08-18T15:02:59.995Z,12.12
2022-08-18T15:05:33.888Z,12.84
2022-08-18T15:08:04.854Z,13.05
2022-08-18T15:10:33.685Z,13.43
2022-08-18T15:13:02.203Z,13.31
2022-08-18T15:15:50.856Z,13.67
2022-08-18T15:18:23.123Z,13.53
2022-08-18T15:21:19.590Z,13.73
2022-08-18T15:24:20.190Z,13.74
2022-08-18T15:26:51.804Z,13.85
2022-08-18T15:29:28.941Z,13.80
2022-08-18T15:32:05.298Z,14.21
2022-08-18T15:34:46.162Z,13.98
2022-08-18T15:37:19.620Z,14.12
2022-08-18T15:39:51.903Z,14.07
2022-08-18T15:42:25.183Z,14.34
2022-08-18T15:44:54.007Z,14.44
2022-08-18T15:47:25.169Z,14.31
2022-08-18T15:49:54.956Z,14.61
2022-08-18T15:52:26.253Z,14.74
2022-08-18T15:55:02.065Z,15.17
2022-08-18T15:57:39.587Z,14.96
2022-08-18T16:00:16.535Z,15.53
2022-08-18T16:02:51.829Z,15.57
2022-08-18T16:05:23.965Z,15.89
2022-08-18T16:07:57.951Z,15.79
2022-08-18T16:10:29.761Z,15.98
2022-08-18T16:12:58.312Z,15.68
2022-08-18T16:15:27.705Z,16.20
2022-08-18T16:17:57.043Z,16.09
2022-08-18T16:20:25.988Z,16.10
2022-08-18T16:22:58.917Z,17.07
2022-08-18T16:25:28.285Z,17.62
2022-08-18T16:27:59.052Z,18.53
2022-08-18T16:30:29.635Z,18.36
2022-08-18T16:33:03.985Z,18.55
2022-08-18T16:35:33.732Z,18.85
2022-08-18T16:38:08.718Z,18.82
2022-08-18T16:40:38.550Z,19.45
2022-08-18T16:43:07.331Z,19.58
2022-08-18T16:45:37.597Z,19.48
2022-08-18T16:48:08.234Z,19.33
2022-08-18T16:50:37.909Z,19.45
2022-08-18T16:53:07.678Z,19.67
2022-08-18T16:55:36.319Z,19.81
2022-08-18T16:58:24.343Z,20.16
2022-08-18T17:01:14.926Z,20.20
2022-08-18T17:04:04.678Z,20.55
2022-08-18T17:06:47.832Z,20.64
2022-08-18T17:09:18.878Z,20.96
2022-08-18T17:11:51.889Z,21.51
2022-08-18T17:14:22.610Z,21.38
2022-08-18T17:16:54.446Z,21.66
2022-08-18T17:19:24.310Z,21.64
2022-08-18T17:21:53.089Z,21.89
2022-08-18T17:24:31.721Z,22.15
2022-08-18T17:27:21.199Z,22.01
2022-08-18T17:30:04.349Z,22.35
2022-08-18T17:32:44.167Z,22.82
2022-08-18T17:35:26.946Z,22.75
2022-08-18T17:38:04.847Z,23.20
2022-08-18T17:40:41.264Z,23.54
2022-08-18T17:43:14.832Z,23.34
2022-08-18T17:45:45.861Z,23.92
2022-08-18T17:48:22.158Z,24.00
2022-08-18T17:51:15.214Z,24.44
2022-08-18T17:53:45.396Z,24.55
2022-08-18T17:56:21.581Z,24.43
2022-08-18T17:58:56.898Z,24.57
2022-08-18T18:01:28.887Z,25.14
2022-08-18T18:03:57.473Z,25.29
2022-08-18T18:06:37.914Z,25.51
2022-08-18T18:09:09.692Z,25.71
2022-08-18T18:11:43.541Z,25.45
2022-08-18T18:14:27.886Z,25.71
2022-08-18T18:17:12.726Z,26.32
2022-08-18T18:19:43.959Z,25.92
2022-08-18T18:22:26.918Z,26.29
2022-08-18T18:25:00.482Z,26.24
2022-08-18T18:27:35.966Z,26.70
2022-08-18T18:30:09.433Z,26.45
2022-08-18T18:32:59.101Z,26.65
2022-08-18T18:35:34.111Z,26.92
2022-08-18T18:38:07.744Z,27.11
2022-08-18T18:40:39.331Z,26.98
2022-08-18T18:43:24.349Z,27.43
2022-08-18T18:46:29.986Z,27.33
2022-08-18T18:49:23.693Z,27.17
2022-08-18T18:52:07.297Z,27.28
2022-08-18T18:55:04.534Z,27.47
2022-08-18T18:57:48.437Z,27.57
2022-08-18T19:00:30.226Z,27.53
2022-08-18T19:03:07.963Z,27.73
2022-08-18T19:05:41.426Z,27.76
2022-08-18T19:08:26.531Z,27.92
2022-08-18T19:11:01.405Z,27.80
2022-08-18T19:13:35.263Z,27.90
2022-08-18T19:16:23.580Z,27.94
2022-08-18T19:19:35.477Z,28.00
2022-08-18T19:22:03.330Z,28.19
2022-08-18T19:24:44.266Z,28.24
2022-08-18T19:27:26.423Z,28.46
2022-08-18T19:30:04.567Z,28.48
2022-08-18T19:32:43.910Z,28.52
2022-08-18T19:35:20.491Z,28.72
2022-08-18T19:38:04.598Z,28.73
2022-08-18T19:40:45.679Z,28.90
2022-08-18T19:43:26.760Z,28.91
2022-08-18T19:46:05.649Z,28.89
2022-08-18T19:48:52.980Z,29.33
2022-08-18T19:51:32.731Z,29.35
2022-08-18T19:54:27.840Z,29.78
2022-08-18T19:57:23.699Z,29.62
2022-08-18T20:00:22.875Z,29.42
2022-08-18T20:03:23.770Z,29.66
2022-08-18T20:06:34.433Z,29.92
2022-08-18T20:09:35.734Z,29.82
2022-08-18T20:12:15.055Z,30.27
2022-08-18T20:15:03.344Z,30.32
2022-08-18T20:17:32.761Z,30.53
2022-08-18T20:20:18.600Z,30.89
2022-08-18T20:22:56.454Z,30.83
2022-08-18T20:25:47.026Z,30.92
2022-08-18T20:28:46.035Z,30.75
2022-08-18T20:31:17.851Z,30.78
2022-08-18T20:34:06.862Z,30.54
2022-08-18T20:36:38.278Z,30.77
2022-08-18T20:39:46.576Z,30.63
2022-08-18T20:42:56.058Z,30.81
2022-08-18T20:45:42.679Z,30.95
2022-08-18T20:48:43.032Z,30.86
2022-08-18T20:51:16.255Z,31.13
2022-08-18T20:54:18.088Z,31.24
2022-08-18T20:56:54.531Z,31.07
2022-08-18T20:59:30.485Z,31.36
2022-08-18T21:02:07.692Z,31.62
2022-08-18T21:04:50.427Z,31.55
2022-08-18T21:07:36.474Z,32.24
2022-08-18T21:10:14.768Z,32.19
2022-08-18T21:12:53.035Z,32.03
2022-08-18T21:15:26.955Z,32.34
2022-08-18T21:18:03.907Z,32.22
2022-08-18T21:20:34.459Z,32.12
2022-08-18T21:23:08.937Z,32.09
2022-08-18T21:25:41.944Z,31.84
2022-08-18T21:28:14.611Z,32.18
2022-08-18T21:31:43.258Z,32.10
2022-08-18T21:33:52.626Z,31.96
2022-08-18T21:36:23.489Z,32.08
2022-08-18T21:39:06.290Z,32.09
2022-08-18T21:41:42.433Z,32.08
2022-08-18T21:44:21.211Z,32.50
2022-08-18T21:46:50.480Z,32.51
2022-08-18T21:49:28.545Z,32.54
2022-08-18T21:51:57.384Z,32.59
2022-08-18T21:54:31.031Z,32.50
2022-08-18T21:57:27.114Z,32.85
2022-08-18T22:00:25.482Z,32.69
2022-08-18T22:03:15.617Z,32.88
2022-08-18T22:05:58.120Z,32.62
2022-08-18T22:08:46.525Z,32.69
2022-08-18T22:12:00.847Z,32.59
2022-08-18T22:14:53.785Z,32.74
2022-08-18T22:17:42.150Z,32.46
2022-08-18T22:20:38.125Z,32.61
2022-08-18T22:23:42.222Z,32.58
2022-08-18T22:26:15.516Z,32.95
2022-08-18T22:28:52.907Z,33.06
2022-08-18T22:31:23.030Z,32.93
2022-08-18T22:33:54.606Z,32.89
2022-08-18T22:36:28.418Z,32.97
2022-08-18T22:38:57.117Z,33.52
2022-08-18T22:41:26.124Z,33.59
2022-08-18T22:43:55.493Z,33.55
2022-08-18T22:46:29.166Z,34.05
2022-08-18T22:49:00.230Z,33.69
2022-08-18T22:51:32.509Z,33.99
2022-08-18T22:54:01.130Z,34.26
2022-08-18T22:56:34.598Z,34.11
2022-08-18T22:59:13.868Z,34.39
2022-08-18T23:01:47.935Z,34.50
2022-08-18T23:04:21.397Z,34.39
2022-08-18T23:06:52.535Z,34.36
2022-08-18T23:09:24.073Z,34.48
2022-08-18T23:11:54.218Z,34.41
2022-08-18T23:14:23.187Z,34.16
2022-08-18T23:16:54.129Z,34.26
2022-08-18T23:19:24.936Z,33.96
2022-08-18T23:21:53.572Z,33.97
2022-08-18T23:24:23.141Z,33.98
2022-08-18T23:26:51.776Z,33.73
2022-08-18T23:29:22.890Z,33.79
2022-08-18T23:31:52.542Z,33.80
2022-08-18T23:34:27.349Z,33.50
2022-08-18T23:36:58.772Z,33.69
2022-08-18T23:39:28.792Z,33.58
2022-08-18T23:41:58.855Z,33.40
2022-08-18T23:44:29.438Z,33.33
2022-08-18T23:46:59.947Z,33.50
2022-08-18T23:49:31.581Z,33.13
2022-08-18T23:52:01.573Z,33.35
2022-08-18T23:54:33.332Z,33.29
2022-08-18T23:57:02.264Z,33.74
2022-08-18T23:59:31.130Z,33.58
